sensor_id;sensor_type;location;lat;lon;timestamp;P1;durP1;ratioP1;P2;durP2;ratioP2
42094;SDS011;27753;55.724;37.612;2022-11-11T00:01:36;49.38;;;31.58;;
42094;SDS011;27753;55.724;37.612;2022-11-11T00:04:02;48.10;;;30.10;;
42094;SDS011;27753;55.724;37.612;2022-11-11T00:06:28;42.13;;;28.10;;
42094;SDS011;27753;55.724;37.612;2022-11-11T00:08:54;47.42;;;29.73;;
42094;SDS011;27753;55.724;37.612;2022-11-11T00:11:20;52.03;;;31.48;;
42094;SDS011;27753;55.724;37.612;2022-11-11T00:13:46;50.53;;;31.20;;
42094;SDS011;27753;55.724;37.612;2022-11-11T00:16:12;48.55;;;28.80;;
42094;SDS011;27753;55.724;37.612;2022-11-11T00:18:40;54.80;;;32.35;;
42094;SDS011;27753;55.724;37.612;2022-11-11T00:21:25;42.42;;;27.48;;
42094;SDS011;27753;55.724;37.612;2022-11-11T00:24:19;52.55;;;31.08;;
42094;SDS011;27753;55.724;37.612;2022-11-11T00:27:08;47.42;;;29.65;;
42094;SDS011;27753;55.724;37.612;2022-11-11T00:32:02;55.75;;;29.08;;
42094;SDS011;27753;55.724;37.612;2022-11-11T00:34:47;45.05;;;29.08;;
42094;SDS011;27753;55.724;37.612;2022-11-11T00:37:33;55.97;;;31.65;;
42094;SDS011;27753;55.724;37.612;2022-11-11T00:39:59;56.47;;;32.42;;
42094;SDS011;27753;55.724;37.612;2022-11-11T00:42:25;45.05;;;29.05;;
42094;SDS011;27753;55.724;37.612;2022-11-11T00:44:51;47.42;;;28.33;;
42094;SDS011;27753;55.724;37.612;2022-11-11T00:47:17;48.78;;;30.00;;
42094;SDS011;27753;55.724;37.612;2022-11-11T00:50:06;54.40;;;30.05;;
42094;SDS011;27753;55.724;37.612;2022-11-11T00:53:18;42.97;;;28.85;;
42094;SDS011;27753;55.724;37.612;2022-11-11T00:55:45;50.67;;;29.42;;
42094;SDS011;27753;55.724;37.612;2022-11-11T00:58:11;44.20;;;28.60;;
42094;SDS011;27753;55.724;37.612;2022-11-11T01:00:37;42.67;;;26.98;;
42094;SDS011;27753;55.724;37.612;2022-11-11T01:03:03;51.63;;;30.35;;
42094;SDS011;27753;55.724;37.612;2022-11-11T01:05:28;41.05;;;24.17;;
42094;SDS011;27753;55.724;37.612;2022-11-11T01:07:57;46.78;;;27.63;;
42094;SDS011;27753;55.724;37.612;2022-11-11T01:10:23;47.67;;;28.13;;
42094;SDS011;27753;55.724;37.612;2022-11-11T01:13:20;42.95;;;27.55;;
42094;SDS011;27753;55.724;37.612;2022-11-11T01:15:49;41.63;;;28.42;;
42094;SDS011;27753;55.724;37.612;2022-11-11T01:18:17;42.50;;;26.13;;
42094;SDS011;27753;55.724;37.612;2022-11-11T01:20:45;41.90;;;26.00;;
42094;SDS011;27753;55.724;37.612;2022-11-11T01:23:12;43.38;;;26.13;;
42094;SDS011;27753;55.724;37.612;2022-11-11T01:25:39;41.00;;;27.05;;
42094;SDS011;27753;55.724;37.612;2022-11-11T01:28:07;42.80;;;26.08;;
42094;SDS011;27753;55.724;37.612;2022-11-11T01:30:34;40.65;;;24.65;;
42094;SDS011;27753;55.724;37.612;2022-11-11T01:33:00;39.70;;;24.70;;
42094;SDS011;27753;55.724;37.612;2022-11-11T01:35:27;39.83;;;25.30;;
42094;SDS011;27753;55.724;37.612;2022-11-11T01:37:53;43.03;;;24.85;;
42094;SDS011;27753;55.724;37.612;2022-11-11T01:40:21;42.88;;;25.25;;
42094;SDS011;27753;55.724;37.612;2022-11-11T01:48:18;38.75;;;23.52;;
42094;SDS011;27753;55.724;37.612;2022-11-11T01:51:35;35.47;;;23.85;;
42094;SDS011;27753;55.724;37.612;2022-11-11T01:54:09;38.08;;;22.27;;
42094;SDS011;27753;55.724;37.612;2022-11-11T01:56:44;36.50;;;23.08;;
42094;SDS011;27753;55.724;37.612;2022-11-11T01:59:14;31.73;;;20.83;;
42094;SDS011;27753;55.724;37.612;2022-11-11T02:04:08;35.15;;;20.98;;
42094;SDS011;27753;55.724;37.612;2022-11-11T02:06:54;31.55;;;21.05;;
42094;SDS011;27753;55.724;37.612;2022-11-11T02:09:22;32.10;;;20.88;;
42094;SDS011;27753;55.724;37.612;2022-11-11T02:11:50;30.25;;;20.23;;
42094;SDS011;27753;55.724;37.612;2022-11-11T02:14:41;29.80;;;19.42;;
42094;SDS011;27753;55.724;37.612;2022-11-11T02:17:10;29.58;;;18.65;;
42094;SDS011;27753;55.724;37.612;2022-11-11T02:19:48;31.65;;;18.95;;
42094;SDS011;27753;55.724;37.612;2022-11-11T02:22:45;26.25;;;18.58;;
42094;SDS011;27753;55.724;37.612;2022-11-11T02:25:14;25.83;;;18.55;;
42094;SDS011;27753;55.724;37.612;2022-11-11T02:27:44;24.70;;;19.08;;
42094;SDS011;27753;55.724;37.612;2022-11-11T02:30:14;27.48;;;16.45;;
42094;SDS011;27753;55.724;37.612;2022-11-11T02:32:44;24.75;;;16.88;;
42094;SDS011;27753;55.724;37.612;2022-11-11T02:35:14;25.80;;;16.63;;
42094;SDS011;27753;55.724;37.612;2022-11-11T02:37:46;24.45;;;15.93;;
42094;SDS011;27753;55.724;37.612;2022-11-11T02:40:23;27.05;;;17.38;;
42094;SDS011;27753;55.724;37.612;2022-11-11T02:43:01;24.52;;;15.65;;
42094;SDS011;27753;55.724;37.612;2022-11-11T02:45:28;25.23;;;16.67;;
42094;SDS011;27753;55.724;37.612;2022-11-11T02:47:53;21.48;;;15.73;;
42094;SDS011;27753;55.724;37.612;2022-11-11T02:50:19;24.60;;;15.32;;
42094;SDS011;27753;55.724;37.612;2022-11-11T02:52:45;21.23;;;13.02;;
42094;SDS011;27753;55.724;37.612;2022-11-11T02:55:11;26.67;;;15.23;;
42094;SDS011;27753;55.724;37.612;2022-11-11T02:57:37;20.95;;;14.13;;
42094;SDS011;27753;55.724;37.612;2022-11-11T03:00:03;24.67;;;15.60;;
42094;SDS011;27753;55.724;37.612;2022-11-11T03:02:30;20.83;;;12.70;;
42094;SDS011;27753;55.724;37.612;2022-11-11T03:04:56;18.13;;;12.85;;
42094;SDS011;27753;55.724;37.612;2022-11-11T03:07:22;18.70;;;13.45;;
42094;SDS011;27753;55.724;37.612;2022-11-11T03:09:49;20.42;;;13.82;;
42094;SDS011;27753;55.724;37.612;2022-11-11T03:12:15;16.13;;;11.80;;
42094;SDS011;27753;55.724;37.612;2022-11-11T03:14:42;17.23;;;12.43;;
42094;SDS011;27753;55.724;37.612;2022-11-11T03:17:08;19.30;;;12.57;;
42094;SDS011;27753;55.724;37.612;2022-11-11T03:19:53;18.17;;;12.85;;
42094;SDS011;27753;55.724;37.612;2022-11-11T03:22:38;16.80;;;12.45;;
42094;SDS011;27753;55.724;37.612;2022-11-11T03:25:04;16.25;;;11.70;;
42094;SDS011;27753;55.724;37.612;2022-11-11T03:27:49;20.70;;;12.82;;
42094;SDS011;27753;55.724;37.612;2022-11-11T03:30:15;14.25;;;11.57;;
42094;SDS011;27753;55.724;37.612;2022-11-11T03:32:42;18.05;;;13.13;;
42094;SDS011;27753;55.724;37.612;2022-11-11T03:35:08;16.65;;;11.13;;
42094;SDS011;27753;55.724;37.612;2022-11-11T03:37:34;15.90;;;10.68;;
42094;SDS011;27753;55.724;37.612;2022-11-11T03:40:18;16.80;;;11.55;;
42094;SDS011;27753;55.724;37.612;2022-11-11T03:42:44;15.00;;;11.02;;
42094;SDS011;27753;55.724;37.612;2022-11-11T03:45:10;15.45;;;10.20;;
42094;SDS011;27753;55.724;37.612;2022-11-11T03:47:36;14.32;;;10.00;;
42094;SDS011;27753;55.724;37.612;2022-11-11T03:50:01;13.20;;;9.50;;
42094;SDS011;27753;55.724;37.612;2022-11-11T03:52:27;13.15;;;9.88;;
42094;SDS011;27753;55.724;37.612;2022-11-11T03:54:53;13.57;;;9.98;;
42094;SDS011;27753;55.724;37.612;2022-11-11T03:57:19;14.50;;;10.48;;
42094;SDS011;27753;55.724;37.612;2022-11-11T03:59:57;14.73;;;10.43;;
42094;SDS011;27753;55.724;37.612;2022-11-11T04:02:23;15.18;;;10.48;;
42094;SDS011;27753;55.724;37.612;2022-11-11T04:05:07;16.73;;;10.52;;
42094;SDS011;27753;55.724;37.612;2022-11-11T04:07:51;16.45;;;8.93;;
42094;SDS011;27753;55.724;37.612;2022-11-11T04:10:36;14.60;;;10.32;;
42094;SDS011;27753;55.724;37.612;2022-11-11T04:13:02;13.00;;;10.35;;
42094;SDS011;27753;55.724;37.612;2022-11-11T04:15:47;14.25;;;11.07;;
42094;SDS011;27753;55.724;37.612;2022-11-11T04:18:31;14.40;;;9.50;;
42094;SDS011;27753;55.724;37.612;2022-11-11T04:21:20;14.43;;;9.80;;
42094;SDS011;27753;55.724;37.612;2022-11-11T04:24:05;13.60;;;11.10;;
42094;SDS011;27753;55.724;37.612;2022-11-11T04:26:50;12.35;;;9.90;;
42094;SDS011;27753;55.724;37.612;2022-11-11T04:29:18;17.77;;;11.38;;
42094;SDS011;27753;55.724;37.612;2022-11-11T04:34:45;12.75;;;9.70;;
42094;SDS011;27753;55.724;37.612;2022-11-11T04:37:19;15.18;;;10.65;;
42094;SDS011;27753;55.724;37.612;2022-11-11T04:39:47;15.05;;;10.40;;
42094;SDS011;27753;55.724;37.612;2022-11-11T04:42:31;15.55;;;10.57;;
42094;SDS011;27753;55.724;37.612;2022-11-11T04:44:58;14.30;;;9.35;;
42094;SDS011;27753;55.724;37.612;2022-11-11T04:48:03;15.27;;;10.93;;
42094;SDS011;27753;55.724;37.612;2022-11-11T04:50:37;12.45;;;8.95;;
42094;SDS011;27753;55.724;37.612;2022-11-11T04:53:05;15.48;;;9.80;;
42094;SDS011;27753;55.724;37.612;2022-11-11T04:55:34;15.48;;;11.18;;
42094;SDS011;27753;55.724;37.612;2022-11-11T04:58:19;12.80;;;9.02;;
42094;SDS011;27753;55.724;37.612;2022-11-11T05:00:47;14.10;;;10.02;;
42094;SDS011;27753;55.724;37.612;2022-11-11T05:03:13;12.48;;;10.00;;
42094;SDS011;27753;55.724;37.612;2022-11-11T05:05:56;12.32;;;9.80;;
42094;SDS011;27753;55.724;37.612;2022-11-11T05:11:22;13.02;;;9.43;;
42094;SDS011;27753;55.724;37.612;2022-11-11T05:13:48;13.32;;;9.68;;
42094;SDS011;27753;55.724;37.612;2022-11-11T05:16:37;13.18;;;10.55;;
42094;SDS011;27753;55.724;37.612;2022-11-11T05:19:29;13.32;;;9.60;;
42094;SDS011;27753;55.724;37.612;2022-11-11T05:22:30;15.60;;;10.07;;
42094;SDS011;27753;55.724;37.612;2022-11-11T05:24:58;14.00;;;8.82;;
42094;SDS011;27753;55.724;37.612;2022-11-11T05:27:43;12.35;;;9.38;;
42094;SDS011;27753;55.724;37.612;2022-11-11T05:30:10;15.07;;;9.68;;
42094;SDS011;27753;55.724;37.612;2022-11-11T05:32:37;10.93;;;9.02;;
42094;SDS011;27753;55.724;37.612;2022-11-11T05:35:03;12.13;;;9.32;;
42094;SDS011;27753;55.724;37.612;2022-11-11T05:37:30;11.80;;;8.88;;
42094;SDS011;27753;55.724;37.612;2022-11-11T05:39:56;12.40;;;8.98;;
42094;SDS011;27753;55.724;37.612;2022-11-11T05:42:22;13.52;;;9.02;;
42094;SDS011;27753;55.724;37.612;2022-11-11T05:44:47;14.18;;;9.68;;
42094;SDS011;27753;55.724;37.612;2022-11-11T05:47:14;15.25;;;9.48;;
42094;SDS011;27753;55.724;37.612;2022-11-11T05:49:43;11.90;;;9.45;;
42094;SDS011;27753;55.724;37.612;2022-11-11T05:52:09;13.82;;;9.60;;
42094;SDS011;27753;55.724;37.612;2022-11-11T05:54:36;12.95;;;10.90;;
42094;SDS011;27753;55.724;37.612;2022-11-11T05:57:03;13.70;;;10.07;;
42094;SDS011;27753;55.724;37.612;2022-11-11T05:59:29;13.27;;;9.15;;
42094;SDS011;27753;55.724;37.612;2022-11-11T06:01:59;14.23;;;9.25;;
42094;SDS011;27753;55.724;37.612;2022-11-11T06:04:25;12.30;;;8.50;;
42094;SDS011;27753;55.724;37.612;2022-11-11T06:06:53;13.13;;;9.52;;
42094;SDS011;27753;55.724;37.612;2022-11-11T06:09:19;14.15;;;9.20;;
42094;SDS011;27753;55.724;37.612;2022-11-11T06:11:45;12.40;;;8.95;;
42094;SDS011;27753;55.724;37.612;2022-11-11T06:14:11;17.42;;;10.60;;
42094;SDS011;27753;55.724;37.612;2022-11-11T06:16:37;14.57;;;8.48;;
42094;SDS011;27753;55.724;37.612;2022-11-11T06:19:03;11.82;;;8.25;;
42094;SDS011;27753;55.724;37.612;2022-11-11T06:21:29;9.55;;;5.82;;
42094;SDS011;27753;55.724;37.612;2022-11-11T06:23:56;13.10;;;7.65;;
42094;SDS011;27753;55.724;37.612;2022-11-11T06:26:31;11.13;;;7.45;;
42094;SDS011;27753;55.724;37.612;2022-11-11T06:28:57;10.48;;;8.45;;
42094;SDS011;27753;55.724;37.612;2022-11-11T06:31:24;14.52;;;9.77;;
42094;SDS011;27753;55.724;37.612;2022-11-11T06:33:51;11.60;;;8.80;;
42094;SDS011;27753;55.724;37.612;2022-11-11T06:36:20;9.38;;;7.30;;
42094;SDS011;27753;55.724;37.612;2022-11-11T06:38:46;10.60;;;7.70;;
42094;SDS011;27753;55.724;37.612;2022-11-11T06:41:15;12.05;;;8.40;;
42094;SDS011;27753;55.724;37.612;2022-11-11T06:43:41;12.35;;;8.35;;
42094;SDS011;27753;55.724;37.612;2022-11-11T06:46:25;11.47;;;8.73;;
42094;SDS011;27753;55.724;37.612;2022-11-11T06:48:51;11.55;;;9.20;;
42094;SDS011;27753;55.724;37.612;2022-11-11T06:51:17;14.68;;;10.60;;
42094;SDS011;27753;55.724;37.612;2022-11-11T06:53:43;16.83;;;10.60;;
42094;SDS011;27753;55.724;37.612;2022-11-11T06:56:10;13.10;;;9.50;;
42094;SDS011;27753;55.724;37.612;2022-11-11T06:58:37;15.67;;;10.97;;
42094;SDS011;27753;55.724;37.612;2022-11-11T07:01:06;12.27;;;10.20;;
42094;SDS011;27753;55.724;37.612;2022-11-11T07:03:33;16.88;;;10.85;;
42094;SDS011;27753;55.724;37.612;2022-11-11T07:06:00;15.27;;;10.98;;
42094;SDS011;27753;55.724;37.612;2022-11-11T07:08:27;12.00;;;9.25;;
42094;SDS011;27753;55.724;37.612;2022-11-11T07:10:53;11.52;;;8.65;;
42094;SDS011;27753;55.724;37.612;2022-11-11T07:13:18;15.45;;;9.68;;
42094;SDS011;27753;55.724;37.612;2022-11-11T07:15:44;10.57;;;8.30;;
42094;SDS011;27753;55.724;37.612;2022-11-11T07:18:11;12.15;;;8.50;;
42094;SDS011;27753;55.724;37.612;2022-11-11T07:20:36;12.80;;;9.05;;
42094;SDS011;27753;55.724;37.612;2022-11-11T07:23:03;13.82;;;8.55;;
42094;SDS011;27753;55.724;37.612;2022-11-11T07:25:29;10.88;;;7.85;;
42094;SDS011;27753;55.724;37.612;2022-11-11T07:27:56;13.10;;;9.20;;
42094;SDS011;27753;55.724;37.612;2022-11-11T07:30:22;14.52;;;8.52;;
42094;SDS011;27753;55.724;37.612;2022-11-11T07:32:50;15.55;;;10.48;;
42094;SDS011;27753;55.724;37.612;2022-11-11T07:35:17;15.98;;;8.25;;
42094;SDS011;27753;55.724;37.612;2022-11-11T07:37:44;13.93;;;9.75;;
42094;SDS011;27753;55.724;37.612;2022-11-11T07:40:11;10.82;;;8.50;;
42094;SDS011;27753;55.724;37.612;2022-11-11T07:42:39;13.45;;;9.05;;
42094;SDS011;27753;55.724;37.612;2022-11-11T07:45:07;14.38;;;9.38;;
42094;SDS011;27753;55.724;37.612;2022-11-11T07:47:33;14.93;;;9.25;;
42094;SDS011;27753;55.724;37.612;2022-11-11T07:50:00;13.57;;;10.27;;
42094;SDS011;27753;55.724;37.612;2022-11-11T07:52:26;13.70;;;9.77;;
42094;SDS011;27753;55.724;37.612;2022-11-11T07:54:52;12.23;;;9.40;;
42094;SDS011;27753;55.724;37.612;2022-11-11T07:57:18;16.95;;;10.70;;
42094;SDS011;27753;55.724;37.612;2022-11-11T07:59:44;16.10;;;8.20;;
42094;SDS011;27753;55.724;37.612;2022-11-11T08:02:10;17.25;;;12.00;;
42094;SDS011;27753;55.724;37.612;2022-11-11T08:04:37;13.10;;;9.90;;
42094;SDS011;27753;55.724;37.612;2022-11-11T08:07:02;15.00;;;9.70;;
42094;SDS011;27753;55.724;37.612;2022-11-11T08:09:28;15.02;;;10.07;;
42094;SDS011;27753;55.724;37.612;2022-11-11T08:11:54;15.73;;;10.90;;
42094;SDS011;27753;55.724;37.612;2022-11-11T08:14:39;19.33;;;12.38;;
42094;SDS011;27753;55.724;37.612;2022-11-11T08:17:05;15.23;;;9.52;;
42094;SDS011;27753;55.724;37.612;2022-11-11T08:19:30;18.58;;;11.98;;
42094;SDS011;27753;55.724;37.612;2022-11-11T08:21:56;25.95;;;13.23;;
42094;SDS011;27753;55.724;37.612;2022-11-11T08:24:22;16.45;;;10.70;;
42094;SDS011;27753;55.724;37.612;2022-11-11T08:26:50;14.32;;;10.25;;
42094;SDS011;27753;55.724;37.612;2022-11-11T08:29:18;17.80;;;10.70;;
42094;SDS011;27753;55.724;37.612;2022-11-11T08:31:44;23.95;;;12.45;;
42094;SDS011;27753;55.724;37.612;2022-11-11T08:34:10;17.58;;;12.13;;
42094;SDS011;27753;55.724;37.612;2022-11-11T08:36:37;16.97;;;12.17;;
42094;SDS011;27753;55.724;37.612;2022-11-11T08:39:06;23.65;;;15.57;;
42094;SDS011;27753;55.724;37.612;2022-11-11T08:41:32;21.90;;;11.40;;
42094;SDS011;27753;55.724;37.612;2022-11-11T08:43:58;20.85;;;12.02;;
42094;SDS011;27753;55.724;37.612;2022-11-11T08:46:25;17.88;;;12.40;;
42094;SDS011;27753;55.724;37.612;2022-11-11T08:48:51;18.73;;;13.00;;
42094;SDS011;27753;55.724;37.612;2022-11-11T08:51:17;15.88;;;12.15;;
42094;SDS011;27753;55.724;37.612;2022-11-11T08:53:43;17.65;;;11.82;;
42094;SDS011;27753;55.724;37.612;2022-11-11T08:56:12;18.00;;;11.95;;
42094;SDS011;27753;55.724;37.612;2022-11-11T08:58:38;17.85;;;12.55;;
42094;SDS011;27753;55.724;37.612;2022-11-11T09:01:04;15.50;;;11.50;;
42094;SDS011;27753;55.724;37.612;2022-11-11T09:03:34;15.00;;;10.82;;
42094;SDS011;27753;55.724;37.612;2022-11-11T09:06:00;16.45;;;11.65;;
42094;SDS011;27753;55.724;37.612;2022-11-11T09:08:26;13.15;;;10.05;;
42094;SDS011;27753;55.724;37.612;2022-11-11T09:10:52;11.98;;;9.10;;
42094;SDS011;27753;55.724;37.612;2022-11-11T09:13:18;12.85;;;11.07;;
42094;SDS011;27753;55.724;37.612;2022-11-11T09:15:43;13.43;;;10.43;;
42094;SDS011;27753;55.724;37.612;2022-11-11T09:18:09;16.38;;;11.45;;
42094;SDS011;27753;55.724;37.612;2022-11-11T09:20:35;17.30;;;11.45;;
42094;SDS011;27753;55.724;37.612;2022-11-11T09:23:01;14.07;;;9.88;;
42094;SDS011;27753;55.724;37.612;2022-11-11T09:25:27;14.77;;;10.02;;
42094;SDS011;27753;55.724;37.612;2022-11-11T09:27:54;14.82;;;9.95;;
42094;SDS011;27753;55.724;37.612;2022-11-11T09:30:21;19.63;;;13.95;;
42094;SDS011;27753;55.724;37.612;2022-11-11T09:32:47;13.10;;;8.50;;
42094;SDS011;27753;55.724;37.612;2022-11-11T09:35:16;15.65;;;9.90;;
42094;SDS011;27753;55.724;37.612;2022-11-11T09:37:42;13.68;;;8.45;;
42094;SDS011;27753;55.724;37.612;2022-11-11T09:42:48;13.30;;;9.98;;
42094;SDS011;27753;55.724;37.612;2022-11-11T09:50:21;14.43;;;9.25;;
42094;SDS011;27753;55.724;37.612;2022-11-11T09:58:03;10.05;;;8.77;;
42094;SDS011;27753;55.724;37.612;2022-11-11T10:00:36;12.38;;;8.65;;
42094;SDS011;27753;55.724;37.612;2022-11-11T10:11:28;14.27;;;9.43;;
42094;SDS011;27753;55.724;37.612;2022-11-11T10:14:17;16.92;;;13.20;;
42094;SDS011;27753;55.724;37.612;2022-11-11T10:17:26;15.52;;;11.88;;
42094;SDS011;27753;55.724;37.612;2022-11-11T10:20:01;12.80;;;10.13;;
42094;SDS011;27753;55.724;37.612;2022-11-11T10:22:48;18.42;;;11.18;;
42094;SDS011;27753;55.724;37.612;2022-11-11T10:25:24;14.63;;;10.82;;
42094;SDS011;27753;55.724;37.612;2022-11-11T10:27:51;14.63;;;11.63;;
42094;SDS011;27753;55.724;37.612;2022-11-11T10:30:24;18.25;;;13.30;;
42094;SDS011;27753;55.724;37.612;2022-11-11T10:33:02;17.60;;;13.75;;
42094;SDS011;27753;55.724;37.612;2022-11-11T10:35:31;17.00;;;12.10;;
42094;SDS011;27753;55.724;37.612;2022-11-11T10:40:40;14.68;;;11.57;;
42094;SDS011;27753;55.724;37.612;2022-11-11T10:46:36;18.05;;;11.82;;
42094;SDS011;27753;55.724;37.612;2022-11-11T10:51:15;12.77;;;10.38;;
42094;SDS011;27753;55.724;37.612;2022-11-11T10:56:23;13.15;;;9.52;;
42094;SDS011;27753;55.724;37.612;2022-11-11T11:01:50;18.13;;;10.70;;
42094;SDS011;27753;55.724;37.612;2022-11-11T11:04:30;16.98;;;9.63;;
42094;SDS011;27753;55.724;37.612;2022-11-11T11:07:02;11.65;;;8.82;;
42094;SDS011;27753;55.724;37.612;2022-11-11T11:12:27;12.52;;;9.32;;
42094;SDS011;27753;55.724;37.612;2022-11-11T11:15:17;11.80;;;9.10;;
42094;SDS011;27753;55.724;37.612;2022-11-11T11:20:18;12.20;;;8.52;;
42094;SDS011;27753;55.724;37.612;2022-11-11T11:22:51;14.73;;;8.98;;
42094;SDS011;27753;55.724;37.612;2022-11-11T11:25:21;13.13;;;9.33;;
42094;SDS011;27753;55.724;37.612;2022-11-11T11:27:48;10.77;;;8.32;;
42094;SDS011;27753;55.724;37.612;2022-11-11T11:32:54;10.13;;;7.35;;
42094;SDS011;27753;55.724;37.612;2022-11-11T11:35:28;15.90;;;9.68;;
42094;SDS011;27753;55.724;37.612;2022-11-11T11:37:57;13.80;;;9.23;;
42094;SDS011;27753;55.724;37.612;2022-11-11T11:40:23;14.27;;;9.00;;
42094;SDS011;27753;55.724;37.612;2022-11-11T11:42:49;12.90;;;9.18;;
42094;SDS011;27753;55.724;37.612;2022-11-11T11:45:28;13.80;;;8.45;;
42094;SDS011;27753;55.724;37.612;2022-11-11T11:51:20;10.02;;;6.53;;
42094;SDS011;27753;55.724;37.612;2022-11-11T11:54:03;13.15;;;9.98;;
42094;SDS011;27753;55.724;37.612;2022-11-11T11:56:59;15.38;;;9.68;;
42094;SDS011;27753;55.724;37.612;2022-11-11T11:59:41;12.10;;;8.35;;
42094;SDS011;27753;55.724;37.612;2022-11-11T12:02:33;13.77;;;9.27;;
42094;SDS011;27753;55.724;37.612;2022-11-11T12:13:18;13.85;;;8.10;;
42094;SDS011;27753;55.724;37.612;2022-11-11T12:15:57;11.98;;;9.30;;
42094;SDS011;27753;55.724;37.612;2022-11-11T12:21:17;14.13;;;8.93;;
42094;SDS011;27753;55.724;37.612;2022-11-11T12:24:03;15.40;;;9.02;;
42094;SDS011;27753;55.724;37.612;2022-11-11T12:26:44;14.73;;;9.57;;
42094;SDS011;27753;55.724;37.612;2022-11-11T12:46:32;18.25;;;9.70;;
42094;SDS011;27753;55.724;37.612;2022-11-11T12:52:16;13.20;;;9.32;;
42094;SDS011;27753;55.724;37.612;2022-11-11T13:00:54;13.60;;;9.65;;
42094;SDS011;27753;55.724;37.612;2022-11-11T13:03:46;14.35;;;9.40;;
42094;SDS011;27753;55.724;37.612;2022-11-11T13:06:23;10.23;;;8.57;;
42094;SDS011;27753;55.724;37.612;2022-11-11T13:17:26;10.40;;;8.20;;
42094;SDS011;27753;55.724;37.612;2022-11-11T13:19:53;13.95;;;9.32;;
42094;SDS011;27753;55.724;37.612;2022-11-11T13:22:26;14.00;;;8.57;;
42094;SDS011;27753;55.724;37.612;2022-11-11T13:24:53;11.93;;;8.13;;
42094;SDS011;27753;55.724;37.612;2022-11-11T13:32:29;12.20;;;8.65;;
42094;SDS011;27753;55.724;37.612;2022-11-11T13:35:03;9.23;;;7.55;;
42094;SDS011;27753;55.724;37.612;2022-11-11T13:37:44;7.93;;;6.57;;
42094;SDS011;27753;55.724;37.612;2022-11-11T13:40:21;11.37;;;6.97;;
42094;SDS011;27753;55.724;37.612;2022-11-11T13:42:49;9.32;;;6.15;;
42094;SDS011;27753;55.724;37.612;2022-11-11T13:45:38;7.85;;;6.25;;
42094;SDS011;27753;55.724;37.612;2022-11-11T13:48:27;9.68;;;4.60;;
42094;SDS011;27753;55.724;37.612;2022-11-11T13:53:46;13.57;;;9.57;;
42094;SDS011;27753;55.724;37.612;2022-11-11T13:59:23;6.85;;;5.55;;
42094;SDS011;27753;55.724;37.612;2022-11-11T14:02:12;9.55;;;6.15;;
42094;SDS011;27753;55.724;37.612;2022-11-11T14:12:42;8.48;;;7.53;;
42094;SDS011;27753;55.724;37.612;2022-11-11T14:18:08;9.48;;;6.05;;
42094;SDS011;27753;55.724;37.612;2022-11-11T14:20:50;6.68;;;5.43;;
42094;SDS011;27753;55.724;37.612;2022-11-11T14:25:49;14.48;;;7.43;;
42094;SDS011;27753;55.724;37.612;2022-11-11T14:28:20;5.05;;;4.20;;
42094;SDS011;27753;55.724;37.612;2022-11-11T14:30:47;6.05;;;4.68;;
42094;SDS011;27753;55.724;37.612;2022-11-11T14:35:58;10.25;;;6.63;;
42094;SDS011;27753;55.724;37.612;2022-11-11T14:38:50;8.68;;;6.50;;
42094;SDS011;27753;55.724;37.612;2022-11-11T14:55:21;8.23;;;5.82;;
42094;SDS011;27753;55.724;37.612;2022-11-11T14:57:50;11.02;;;6.93;;
42094;SDS011;27753;55.724;37.612;2022-11-11T15:00:18;9.13;;;5.68;;
42094;SDS011;27753;55.724;37.612;2022-11-11T15:06:19;18.58;;;9.32;;
42094;SDS011;27753;55.724;37.612;2022-11-11T15:08:52;9.90;;;6.22;;
42094;SDS011;27753;55.724;37.612;2022-11-11T15:11:50;9.70;;;5.88;;
42094;SDS011;27753;55.724;37.612;2022-11-11T15:14:41;8.18;;;6.32;;
42094;SDS011;27753;55.724;37.612;2022-11-11T15:20:18;9.27;;;5.63;;
42094;SDS011;27753;55.724;37.612;2022-11-11T15:37:14;14.02;;;5.65;;
42094;SDS011;27753;55.724;37.612;2022-11-11T15:39:50;9.13;;;4.82;;
42094;SDS011;27753;55.724;37.612;2022-11-11T15:44:53;9.40;;;5.72;;
42094;SDS011;27753;55.724;37.612;2022-11-11T15:47:20;11.93;;;7.90;;
42094;SDS011;27753;55.724;37.612;2022-11-11T15:49:49;13.88;;;7.03;;
42094;SDS011;27753;55.724;37.612;2022-11-11T15:54:47;8.52;;;5.85;;
42094;SDS011;27753;55.724;37.612;2022-11-11T15:57:35;13.88;;;6.38;;
42094;SDS011;27753;55.724;37.612;2022-11-11T16:00:03;6.35;;;4.55;;
42094;SDS011;27753;55.724;37.612;2022-11-11T16:02:52;10.57;;;5.25;;
42094;SDS011;27753;55.724;37.612;2022-11-11T16:05:23;9.63;;;4.75;;
42094;SDS011;27753;55.724;37.612;2022-11-11T16:07:58;8.00;;;5.13;;
42094;SDS011;27753;55.724;37.612;2022-11-11T16:10:35;10.52;;;5.80;;
42094;SDS011;27753;55.724;37.612;2022-11-11T16:16:30;12.57;;;7.55;;
42094;SDS011;27753;55.724;37.612;2022-11-11T16:21:46;10.60;;;5.45;;
42094;SDS011;27753;55.724;37.612;2022-11-11T16:24:35;9.13;;;5.05;;
42094;SDS011;27753;55.724;37.612;2022-11-11T16:27:04;10.25;;;5.82;;
42094;SDS011;27753;55.724;37.612;2022-11-11T16:32:00;12.32;;;7.18;;
42094;SDS011;27753;55.724;37.612;2022-11-11T16:37:00;10.07;;;4.78;;
42094;SDS011;27753;55.724;37.612;2022-11-11T16:39:30;8.13;;;5.68;;
42094;SDS011;27753;55.724;37.612;2022-11-11T16:41:57;6.45;;;3.53;;
42094;SDS011;27753;55.724;37.612;2022-11-11T16:47:02;9.30;;;5.70;;
42094;SDS011;27753;55.724;37.612;2022-11-11T16:49:39;8.57;;;3.55;;
42094;SDS011;27753;55.724;37.612;2022-11-11T16:52:08;7.05;;;4.72;;
42094;SDS011;27753;55.724;37.612;2022-11-11T16:54:41;9.80;;;4.30;;
42094;SDS011;27753;55.724;37.612;2022-11-11T16:57:20;7.82;;;4.60;;
42094;SDS011;27753;55.724;37.612;2022-11-11T16:59:51;11.95;;;5.75;;
42094;SDS011;27753;55.724;37.612;2022-11-11T17:02:28;7.80;;;4.90;;
42094;SDS011;27753;55.724;37.612;2022-11-11T17:04:55;5.93;;;4.78;;
42094;SDS011;27753;55.724;37.612;2022-11-11T17:07:29;8.05;;;5.28;;
42094;SDS011;27753;55.724;37.612;2022-11-11T17:12:39;11.52;;;5.68;;
42094;SDS011;27753;55.724;37.612;2022-11-11T17:15:10;8.48;;;5.13;;
42094;SDS011;27753;55.724;37.612;2022-11-11T17:17:37;11.70;;;5.72;;
42094;SDS011;27753;55.724;37.612;2022-11-11T17:20:06;7.15;;;4.55;;
42094;SDS011;27753;55.724;37.612;2022-11-11T17:22:33;10.20;;;6.80;;
42094;SDS011;27753;55.724;37.612;2022-11-11T17:24:59;7.95;;;5.82;;
42094;SDS011;27753;55.724;37.612;2022-11-11T17:27:27;8.63;;;5.85;;
42094;SDS011;27753;55.724;37.612;2022-11-11T17:29:55;7.45;;;5.47;;
42094;SDS011;27753;55.724;37.612;2022-11-11T17:32:21;9.60;;;5.20;;
42094;SDS011;27753;55.724;37.612;2022-11-11T17:34:47;11.27;;;5.38;;
42094;SDS011;27753;55.724;37.612;2022-11-11T17:37:12;7.07;;;5.22;;
42094;SDS011;27753;55.724;37.612;2022-11-11T17:39:38;7.28;;;5.32;;
42094;SDS011;27753;55.724;37.612;2022-11-11T17:42:09;8.82;;;6.15;;
42094;SDS011;27753;55.724;37.612;2022-11-11T17:44:35;11.63;;;6.38;;
42094;SDS011;27753;55.724;37.612;2022-11-11T17:47:01;8.50;;;6.00;;
42094;SDS011;27753;55.724;37.612;2022-11-11T17:49:27;11.43;;;5.25;;
42094;SDS011;27753;55.724;37.612;2022-11-11T17:51:53;8.43;;;5.57;;
42094;SDS011;27753;55.724;37.612;2022-11-11T17:54:19;7.32;;;6.35;;
42094;SDS011;27753;55.724;37.612;2022-11-11T17:56:47;8.90;;;6.10;;